sensor_id;sensor_type;location;lat;lon;timestamp;temperature;humidity
37086;DHT22;23001;45.952;12.676;2023-07-24T05:15:45;24.60;99.90
37086;DHT22;23001;45.952;12.676;2023-07-24T05:18:10;24.60;99.90
37086;DHT22;23001;45.952;12.676;2023-07-24T05:26:49;24.80;99.90
37086;DHT22;23001;45.952;12.676;2023-07-24T05:29:20;24.90;99.90
37086;DHT22;23001;45.952;12.676;2023-07-24T05:31:45;25.10;99.90
37086;DHT22;23001;45.952;12.676;2023-07-24T05:34:20;25.20;99.90
37086;DHT22;23001;45.952;12.676;2023-07-24T05:37:14;25.30;99.90
37086;DHT22;23001;45.952;12.676;2023-07-24T05:39:45;25.50;99.90
37086;DHT22;23001;45.952;12.676;2023-07-24T05:42:14;25.60;99.90
37086;DHT22;23001;45.952;12.676;2023-07-24T05:44:46;25.70;99.90
37086;DHT22;23001;45.952;12.676;2023-07-24T05:47:37;25.90;99.90
37086;DHT22;23001;45.952;12.676;2023-07-24T05:50:15;26.00;99.90
37086;DHT22;23001;45.952;12.676;2023-07-24T05:52:48;26.30;99.90
37086;DHT22;23001;45.952;12.676;2023-07-24T05:55:23;26.40;99.90
37086;DHT22;23001;45.952;12.676;2023-07-24T05:57:58;26.30;99.90
37086;DHT22;23001;45.952;12.676;2023-07-24T06:00:26;26.20;99.90
37086;DHT22;23001;45.952;12.676;2023-07-24T06:02:53;26.20;99.90
37086;DHT22;23001;45.952;12.676;2023-07-24T06:05:18;26.10;99.90
37086;DHT22;23001;45.952;12.676;2023-07-24T06:32:16;27.30;99.90
37086;DHT22;23001;45.952;12.676;2023-07-24T06:34:43;27.70;99.90
37086;DHT22;23001;45.952;12.676;2023-07-24T06:37:08;28.10;99.90
37086;DHT22;23001;45.952;12.676;2023-07-24T06:39:56;28.30;99.90
37086;DHT22;23001;45.952;12.676;2023-07-24T07:08:40;27.50;99.90
37086;DHT22;23001;45.952;12.676;2023-07-24T07:11:19;27.50;99.90
37086;DHT22;23001;45.952;12.676;2023-07-24T07:37:49;28.70;99.90
37086;DHT22;23001;45.952;12.676;2023-07-24T07:49:44;29.20;99.90
37086;DHT22;23001;45.952;12.676;2023-07-24T07:52:09;28.20;99.90
37086;DHT22;23001;45.952;12.676;2023-07-24T07:57:55;27.60;99.90
37086;DHT22;23001;45.952;12.676;2023-07-24T08:00:21;28.00;99.90
37086;DHT22;23001;45.952;12.676;2023-07-24T08:03:32;29.30;99.90
37086;DHT22;23001;45.952;12.676;2023-07-24T08:05:45;29.80;99.90
37086;DHT22;23001;45.952;12.676;2023-07-24T08:08:10;30.40;99.90
37086;DHT22;23001;45.952;12.676;2023-07-24T08:10:45;30.10;99.90
37086;DHT22;23001;45.952;12.676;2023-07-24T08:13:31;30.00;99.90
37086;DHT22;23001;45.952;12.676;2023-07-24T08:15:56;30.20;99.90
37086;DHT22;23001;45.952;12.676;2023-07-24T08:18:53;30.00;99.90
37086;DHT22;23001;45.952;12.676;2023-07-24T08:21:21;29.80;99.90
37086;DHT22;23001;45.952;12.676;2023-07-24T08:23:47;29.60;99.90
37086;DHT22;23001;45.952;12.676;2023-07-24T08:26:13;29.70;99.90
37086;DHT22;23001;45.952;12.676;2023-07-24T08:28:53;29.20;99.90
37086;DHT22;23001;45.952;12.676;2023-07-24T08:31:21;28.90;99.90
37086;DHT22;23001;45.952;12.676;2023-07-24T08:33:47;28.90;99.90
37086;DHT22;23001;45.952;12.676;2023-07-24T08:36:12;29.20;99.90
37086;DHT22;23001;45.952;12.676;2023-07-24T08:38:43;29.20;99.90
37086;DHT22;23001;45.952;12.676;2023-07-24T08:41:13;29.20;99.90
37086;DHT22;23001;45.952;12.676;2023-07-24T08:43:40;29.20;99.90
37086;DHT22;23001;45.952;12.676;2023-07-24T08:46:07;29.40;99.90
37086;DHT22;23001;45.952;12.676;2023-07-24T08:48:33;29.60;99.90
37086;DHT22;23001;45.952;12.676;2023-07-24T08:51:09;29.90;99.90
37086;DHT22;23001;45.952;12.676;2023-07-24T08:53:48;29.80;99.90
37086;DHT22;23001;45.952;12.676;2023-07-24T08:56:16;29.20;99.90
37086;DHT22;23001;45.952;12.676;2023-07-24T08:58:42;28.90;99.90
37086;DHT22;23001;45.952;12.676;2023-07-24T09:01:08;28.70;99.90
37086;DHT22;23001;45.952;12.676;2023-07-24T09:04:22;28.50;99.90
37086;DHT22;23001;45.952;12.676;2023-07-24T09:06:35;28.40;99.90
37086;DHT22;23001;45.952;12.676;2023-07-24T09:09:52;28.70;99.90
37086;DHT22;23001;45.952;12.676;2023-07-24T09:21:34;28.90;99.90
37086;DHT22;23001;45.952;12.676;2023-07-24T09:24:25;28.80;99.90
37086;DHT22;23001;45.952;12.676;2023-07-24T09:26:49;28.70;99.90
37086;DHT22;23001;45.952;12.676;2023-07-24T09:29:15;29.10;99.90
37086;DHT22;23001;45.952;12.676;2023-07-24T09:31:41;29.20;99.90
37086;DHT22;23001;45.952;12.676;2023-07-24T09:34:16;29.20;99.90
37086;DHT22;23001;45.952;12.676;2023-07-24T09:36:42;28.80;99.90
37086;DHT22;23001;45.952;12.676;2023-07-24T09:39:08;28.50;99.90
37086;DHT22;23001;45.952;12.676;2023-07-24T09:41:36;28.20;99.90
37086;DHT22;23001;45.952;12.676;2023-07-24T09:44:01;28.10;99.90
37086;DHT22;23001;45.952;12.676;2023-07-24T09:46:27;27.90;99.90
37086;DHT22;23001;45.952;12.676;2023-07-24T09:48:58;27.60;99.90
37086;DHT22;23001;45.952;12.676;2023-07-24T09:51:28;27.50;99.90
37086;DHT22;23001;45.952;12.676;2023-07-24T10:08:43;29.70;99.90
37086;DHT22;23001;45.952;12.676;2023-07-24T11:56:26;28.50;99.90
37086;DHT22;23001;45.952;12.676;2023-07-24T12:05:45;29.00;99.90
37086;DHT22;23001;45.952;12.676;2023-07-24T12:11:24;29.10;99.90
37086;DHT22;23001;45.952;12.676;2023-07-24T14:12:08;27.30;99.90
37086;DHT22;23001;45.952;12.676;2023-07-24T14:14:55;27.20;99.90
37086;DHT22;23001;45.952;12.676;2023-07-24T14:17:28;27.20;99.90
37086;DHT22;23001;45.952;12.676;2023-07-24T14:20:35;27.10;99.90
37086;DHT22;23001;45.952;12.676;2023-07-24T14:23:29;27.10;99.90
37086;DHT22;23001;45.952;12.676;2023-07-24T14:35:19;27.00;99.90
37086;DHT22;23001;45.952;12.676;2023-07-24T14:37:48;26.90;99.90
37086;DHT22;23001;45.952;12.676;2023-07-24T14:40:25;27.00;99.90
37086;DHT22;23001;45.952;12.676;2023-07-24T14:43:11;26.90;99.90
37086;DHT22;23001;45.952;12.676;2023-07-24T14:48:40;26.60;99.90
37086;DHT22;23001;45.952;12.676;2023-07-24T15:47:39;26.50;99.90
37086;DHT22;23001;45.952;12.676;2023-07-24T15:53:25;26.60;99.90
37086;DHT22;23001;45.952;12.676;2023-07-24T15:55:59;26.70;99.90
37086;DHT22;23001;45.952;12.676;2023-07-24T16:16:36;26.60;99.90
37086;DHT22;23001;45.952;12.676;2023-07-24T16:22:32;26.60;99.90
37086;DHT22;23001;45.952;12.676;2023-07-24T16:30:47;26.70;99.90
37086;DHT22;23001;45.952;12.676;2023-07-24T16:36:03;26.70;99.90
37086;DHT22;23001;45.952;12.676;2023-07-24T16:38:35;26.60;99.90
37086;DHT22;23001;45.952;12.676;2023-07-24T17:49:16;25.70;99.90
37086;DHT22;23001;45.952;12.676;2023-07-24T17:52:03;25.70;99.90
37086;DHT22;23001;45.952;12.676;2023-07-24T17:54:37;25.60;99.90
37086;DHT22;23001;45.952;12.676;2023-07-24T17:57:09;25.60;99.90
37086;DHT22;23001;45.952;12.676;2023-07-24T18:02:28;25.50;99.90
37086;DHT22;23001;45.952;12.676;2023-07-24T18:04:54;25.50;99.90
37086;DHT22;23001;45.952;12.676;2023-07-24T18:07:32;25.40;99.90
37086;DHT22;23001;45.952;12.676;2023-07-24T18:10:04;25.40;99.90
37086;DHT22;23001;45.952;12.676;2023-07-24T18:12:30;25.40;99.90
37086;DHT22;23001;45.952;12.676;2023-07-24T18:14:56;25.40;99.90
37086;DHT22;23001;45.952;12.676;2023-07-24T18:17:24;25.30;99.90
37086;DHT22;23001;45.952;12.676;2023-07-24T18:19:50;25.20;99.90
37086;DHT22;23001;45.952;12.676;2023-07-24T18:28:33;25.20;99.90
37086;DHT22;23001;45.952;12.676;2023-07-24T18:37:13;25.30;99.90
37086;DHT22;23001;45.952;12.676;2023-07-24T18:39:38;25.20;99.90
37086;DHT22;23001;45.952;12.676;2023-07-24T18:48:13;25.40;99.90
37086;DHT22;23001;45.952;12.676;2023-07-24T18:50:59;21.90;99.90
37086;DHT22;23001;45.952;12.676;2023-07-24T18:56:38;20.90;99.90
37086;DHT22;23001;45.952;12.676;2023-07-24T18:59:22;20.60;99.90
37086;DHT22;23001;45.952;12.676;2023-07-24T19:05:20;20.50;99.90
37086;DHT22;23001;45.952;12.676;2023-07-24T19:11:07;20.70;99.90
37086;DHT22;23001;45.952;12.676;2023-07-24T19:17:19;20.90;99.90
37086;DHT22;23001;45.952;12.676;2023-07-24T19:19:56;20.90;99.90
37086;DHT22;23001;45.952;12.676;2023-07-24T19:22:31;20.80;99.90
37086;DHT22;23001;45.952;12.676;2023-07-24T19:31:27;21.10;99.90
37086;DHT22;23001;45.952;12.676;2023-07-24T19:34:33;21.10;99.90
37086;DHT22;23001;45.952;12.676;2023-07-24T19:37:18;21.10;99.90
37086;DHT22;23001;45.952;12.676;2023-07-24T19:39:55;21.10;99.90
37086;DHT22;23001;45.952;12.676;2023-07-24T19:42:41;21.20;99.90
37086;DHT22;23001;45.952;12.676;2023-07-24T19:45:29;21.20;99.90
37086;DHT22;23001;45.952;12.676;2023-07-24T19:50:53;21.20;99.90
37086;DHT22;23001;45.952;12.676;2023-07-24T19:53:31;21.30;99.90
37086;DHT22;23001;45.952;12.676;2023-07-24T19:56:14;21.20;99.90
37086;DHT22;23001;45.952;12.676;2023-07-24T20:01:51;21.00;99.90
37086;DHT22;23001;45.952;12.676;2023-07-24T20:07:53;21.10;99.90
37086;DHT22;23001;45.952;12.676;2023-07-24T20:10:19;21.10;99.90
37086;DHT22;23001;45.952;12.676;2023-07-24T20:53:59;21.10;99.90
37086;DHT22;23001;45.952;12.676;2023-07-24T20:59:27;21.30;99.90
37086;DHT22;23001;45.952;12.676;2023-07-24T21:02:05;21.30;99.90
37086;DHT22;23001;45.952;12.676;2023-07-24T21:07:53;20.40;99.90
37086;DHT22;23001;45.952;12.676;2023-07-24T21:38:29;21.40;99.90
37086;DHT22;23001;45.952;12.676;2023-07-24T21:40:57;21.20;99.90
37086;DHT22;23001;45.952;12.676;2023-07-24T21:49:51;21.30;99.90
37086;DHT22;23001;45.952;12.676;2023-07-24T22:40:07;21.30;99.90
37086;DHT22;23001;45.952;12.676;2023-07-24T22:59:30;21.00;99.90
37086;DHT22;23001;45.952;12.676;2023-07-24T23:38:30;20.60;99.90
